Terminal Aerodrome Forecast
Issued by NWS Topeka, KS

Home | Current Version | Previous Version | Text Only | Print | Product List | Glossary Off
Versions: 1 2 3 4 5 6 7 8 9 10 11 12 13 14 15

785
FTUS43 KTOP 030539
TAFTOP
TAF
KTOP 030539Z 0306/0406 30013G23KT P6SM -SN BKN015
     FM030800 31016G28KT P6SM BKN015
     FM031900 31015KT P6SM SCT020
     FM040000 29007KT P6SM SKC=

USA.gov is the U.S. government's official web portal to all federal, state and local government web resources and services.